sensor_id;sensor_type;location;lat;lon;timestamp;temperature;humidity
19214;DHT22;9741;51.020;5.304;2023-01-29T00:02:23;-2.40;54.70
19214;DHT22;9741;51.020;5.304;2023-01-29T00:04:51;-2.40;54.70
19214;DHT22;9741;51.020;5.304;2023-01-29T00:07:19;-2.40;54.70
19214;DHT22;9741;51.020;5.304;2023-01-29T00:09:46;-2.40;54.80
19214;DHT22;9741;51.020;5.304;2023-01-29T00:12:13;-2.40;54.80
19214;DHT22;9741;51.020;5.304;2023-01-29T00:14:41;-2.50;54.80
19214;DHT22;9741;51.020;5.304;2023-01-29T00:17:09;-2.50;54.80
19214;DHT22;9741;51.020;5.304;2023-01-29T00:19:37;-2.40;54.90
19214;DHT22;9741;51.020;5.304;2023-01-29T00:22:04;-2.50;54.90
19214;DHT22;9741;51.020;5.304;2023-01-29T00:24:32;-2.50;54.90
19214;DHT22;9741;51.020;5.304;2023-01-29T00:27:00;-2.50;54.90
19214;DHT22;9741;51.020;5.304;2023-01-29T00:29:28;-2.50;54.90
19214;DHT22;9741;51.020;5.304;2023-01-29T00:31:56;-2.50;54.90
19214;DHT22;9741;51.020;5.304;2023-01-29T00:34:25;-2.60;54.90
19214;DHT22;9741;51.020;5.304;2023-01-29T00:36:52;-2.60;54.90
19214;DHT22;9741;51.020;5.304;2023-01-29T00:39:30;-2.60;54.90
19214;DHT22;9741;51.020;5.304;2023-01-29T00:42:04;-2.60;54.90
19214;DHT22;9741;51.020;5.304;2023-01-29T00:44:49;-2.60;55.00
19214;DHT22;9741;51.020;5.304;2023-01-29T00:47:26;-2.60;55.00
19214;DHT22;9741;51.020;5.304;2023-01-29T00:50:04;-2.60;55.00
19214;DHT22;9741;51.020;5.304;2023-01-29T00:52:33;-2.60;55.10
19214;DHT22;9741;51.020;5.304;2023-01-29T00:55:02;-2.60;55.00
19214;DHT22;9741;51.020;5.304;2023-01-29T00:57:31;-2.70;55.00
19214;DHT22;9741;51.020;5.304;2023-01-29T00:59:59;-2.70;55.00
19214;DHT22;9741;51.020;5.304;2023-01-29T01:02:28;-2.70;55.10
19214;DHT22;9741;51.020;5.304;2023-01-29T01:05:16;-2.70;55.00
19214;DHT22;9741;51.020;5.304;2023-01-29T01:07:44;-2.80;55.00
19214;DHT22;9741;51.020;5.304;2023-01-29T01:10:14;-2.80;55.00
19214;DHT22;9741;51.020;5.304;2023-01-29T01:12:52;-2.80;55.10
19214;DHT22;9741;51.020;5.304;2023-01-29T01:15:21;-2.80;55.10
19214;DHT22;9741;51.020;5.304;2023-01-29T01:17:52;-2.80;55.20
19214;DHT22;9741;51.020;5.304;2023-01-29T01:20:22;-2.80;55.20
19214;DHT22;9741;51.020;5.304;2023-01-29T01:22:51;-2.80;55.20
19214;DHT22;9741;51.020;5.304;2023-01-29T01:25:20;-2.80;55.20
19214;DHT22;9741;51.020;5.304;2023-01-29T01:27:49;-2.80;55.20
19214;DHT22;9741;51.020;5.304;2023-01-29T01:30:18;-2.80;55.20
19214;DHT22;9741;51.020;5.304;2023-01-29T01:32:46;-2.90;55.10
19214;DHT22;9741;51.020;5.304;2023-01-29T01:35:14;-2.90;55.10
19214;DHT22;9741;51.020;5.304;2023-01-29T01:37:43;-2.80;55.30
19214;DHT22;9741;51.020;5.304;2023-01-29T01:40:14;-2.90;55.20
19214;DHT22;9741;51.020;5.304;2023-01-29T01:42:43;-2.90;55.20
19214;DHT22;9741;51.020;5.304;2023-01-29T01:45:20;-2.90;55.30
19214;DHT22;9741;51.020;5.304;2023-01-29T01:47:50;-2.90;55.30
19214;DHT22;9741;51.020;5.304;2023-01-29T01:50:21;-2.90;55.30
19214;DHT22;9741;51.020;5.304;2023-01-29T01:52:54;-2.90;55.30
19214;DHT22;9741;51.020;5.304;2023-01-29T01:55:26;-2.90;55.30
19214;DHT22;9741;51.020;5.304;2023-01-29T01:57:56;-2.90;55.30
19214;DHT22;9741;51.020;5.304;2023-01-29T02:00:26;-2.90;55.30
19214;DHT22;9741;51.020;5.304;2023-01-29T02:02:56;-3.00;55.30
19214;DHT22;9741;51.020;5.304;2023-01-29T02:05:41;-3.00;55.40
19214;DHT22;9741;51.020;5.304;2023-01-29T02:08:34;-3.00;55.30
19214;DHT22;9741;51.020;5.304;2023-01-29T02:11:19;-3.00;55.40
19214;DHT22;9741;51.020;5.304;2023-01-29T02:13:49;-3.00;55.40
19214;DHT22;9741;51.020;5.304;2023-01-29T02:16:20;-3.00;55.40
19214;DHT22;9741;51.020;5.304;2023-01-29T02:18:47;-3.10;55.40
19214;DHT22;9741;51.020;5.304;2023-01-29T02:21:24;-3.10;55.40
19214;DHT22;9741;51.020;5.304;2023-01-29T02:24:23;-3.10;55.40
19214;DHT22;9741;51.020;5.304;2023-01-29T02:27:03;-3.10;55.40
19214;DHT22;9741;51.020;5.304;2023-01-29T02:29:46;-3.10;55.50
19214;DHT22;9741;51.020;5.304;2023-01-29T02:32:26;-3.10;55.50
19214;DHT22;9741;51.020;5.304;2023-01-29T02:35:09;-3.10;55.50
19214;DHT22;9741;51.020;5.304;2023-01-29T02:38:03;-3.10;55.50
19214;DHT22;9741;51.020;5.304;2023-01-29T02:40:38;-3.10;55.50
19214;DHT22;9741;51.020;5.304;2023-01-29T02:43:13;-3.10;55.50
19214;DHT22;9741;51.020;5.304;2023-01-29T02:45:47;-3.10;55.60
19214;DHT22;9741;51.020;5.304;2023-01-29T02:48:18;-3.10;55.60
19214;DHT22;9741;51.020;5.304;2023-01-29T02:50:57;-3.20;55.50
19214;DHT22;9741;51.020;5.304;2023-01-29T02:53:28;-3.20;55.50
19214;DHT22;9741;51.020;5.304;2023-01-29T02:56:02;-3.20;55.50
19214;DHT22;9741;51.020;5.304;2023-01-29T02:58:38;-3.20;56.10
19214;DHT22;9741;51.020;5.304;2023-01-29T03:01:15;-3.20;55.60
19214;DHT22;9741;51.020;5.304;2023-01-29T03:03:47;-3.20;55.60
19214;DHT22;9741;51.020;5.304;2023-01-29T03:06:22;-3.20;55.60
19214;DHT22;9741;51.020;5.304;2023-01-29T03:08:55;-3.20;55.60
19214;DHT22;9741;51.020;5.304;2023-01-29T03:11:26;-3.20;55.60
19214;DHT22;9741;51.020;5.304;2023-01-29T03:13:59;-3.20;55.60
19214;DHT22;9741;51.020;5.304;2023-01-29T03:16:33;-3.20;55.60
19214;DHT22;9741;51.020;5.304;2023-01-29T03:19:06;-3.20;55.60
19214;DHT22;9741;51.020;5.304;2023-01-29T03:21:38;-3.30;55.60
19214;DHT22;9741;51.020;5.304;2023-01-29T03:24:32;-3.30;55.60
19214;DHT22;9741;51.020;5.304;2023-01-29T03:27:20;-3.30;55.60
19214;DHT22;9741;51.020;5.304;2023-01-29T03:30:10;-3.30;55.60
19214;DHT22;9741;51.020;5.304;2023-01-29T03:33:02;-3.30;55.60
19214;DHT22;9741;51.020;5.304;2023-01-29T03:35:35;-3.30;55.60
19214;DHT22;9741;51.020;5.304;2023-01-29T03:38:05;-3.40;55.60
19214;DHT22;9741;51.020;5.304;2023-01-29T03:40:42;-3.40;55.60
19214;DHT22;9741;51.020;5.304;2023-01-29T03:43:19;-3.40;55.60
19214;DHT22;9741;51.020;5.304;2023-01-29T03:46:02;-3.40;55.60
19214;DHT22;9741;51.020;5.304;2023-01-29T03:48:35;-3.40;55.70
19214;DHT22;9741;51.020;5.304;2023-01-29T03:51:14;-3.40;55.70
19214;DHT22;9741;51.020;5.304;2023-01-29T03:53:48;-3.40;55.70
19214;DHT22;9741;51.020;5.304;2023-01-29T03:56:36;-3.40;55.80
19214;DHT22;9741;51.020;5.304;2023-01-29T03:59:14;-3.40;55.80
19214;DHT22;9741;51.020;5.304;2023-01-29T04:01:45;-3.40;55.70
19214;DHT22;9741;51.020;5.304;2023-01-29T04:04:23;-3.40;55.80
19214;DHT22;9741;51.020;5.304;2023-01-29T04:06:55;-3.40;55.80
19214;DHT22;9741;51.020;5.304;2023-01-29T04:09:28;-3.40;55.70
19214;DHT22;9741;51.020;5.304;2023-01-29T04:12:02;-3.40;55.70
19214;DHT22;9741;51.020;5.304;2023-01-29T04:14:34;-3.40;55.80
19214;DHT22;9741;51.020;5.304;2023-01-29T04:17:05;-3.40;55.80
19214;DHT22;9741;51.020;5.304;2023-01-29T04:19:35;-3.40;55.80
19214;DHT22;9741;51.020;5.304;2023-01-29T04:22:05;-3.40;55.90
19214;DHT22;9741;51.020;5.304;2023-01-29T04:24:33;-3.40;55.80
19214;DHT22;9741;51.020;5.304;2023-01-29T04:27:16;-3.40;55.80
19214;DHT22;9741;51.020;5.304;2023-01-29T04:29:59;-3.40;55.70
19214;DHT22;9741;51.020;5.304;2023-01-29T04:32:46;-3.40;55.70
19214;DHT22;9741;51.020;5.304;2023-01-29T04:35:26;-3.40;55.80
19214;DHT22;9741;51.020;5.304;2023-01-29T04:38:03;-3.40;55.80
19214;DHT22;9741;51.020;5.304;2023-01-29T04:40:42;-3.50;55.70
19214;DHT22;9741;51.020;5.304;2023-01-29T04:43:20;-3.40;55.90
19214;DHT22;9741;51.020;5.304;2023-01-29T04:46:04;-3.40;55.90
19214;DHT22;9741;51.020;5.304;2023-01-29T04:48:50;-3.40;55.90
19214;DHT22;9741;51.020;5.304;2023-01-29T04:51:32;-3.40;56.00
19214;DHT22;9741;51.020;5.304;2023-01-29T04:54:07;-3.40;55.90
19214;DHT22;9741;51.020;5.304;2023-01-29T04:56:43;-3.30;56.00
19214;DHT22;9741;51.020;5.304;2023-01-29T04:59:21;-3.30;56.00
19214;DHT22;9741;51.020;5.304;2023-01-29T05:01:51;-3.30;55.90
19214;DHT22;9741;51.020;5.304;2023-01-29T05:04:19;-3.20;56.00
19214;DHT22;9741;51.020;5.304;2023-01-29T05:06:49;-3.20;56.00
19214;DHT22;9741;51.020;5.304;2023-01-29T05:09:17;-3.10;56.10
19214;DHT22;9741;51.020;5.304;2023-01-29T05:11:46;-3.00;56.20
19214;DHT22;9741;51.020;5.304;2023-01-29T05:14:16;-3.00;56.20
19214;DHT22;9741;51.020;5.304;2023-01-29T05:16:46;-2.90;56.30
19214;DHT22;9741;51.020;5.304;2023-01-29T05:19:17;-2.80;56.30
19214;DHT22;9741;51.020;5.304;2023-01-29T05:21:51;-2.70;56.40
19214;DHT22;9741;51.020;5.304;2023-01-29T05:24:21;-2.60;56.40
19214;DHT22;9741;51.020;5.304;2023-01-29T05:26:52;-2.40;56.50
19214;DHT22;9741;51.020;5.304;2023-01-29T05:29:41;-2.30;56.50
19214;DHT22;9741;51.020;5.304;2023-01-29T05:32:11;-2.20;56.50
19214;DHT22;9741;51.020;5.304;2023-01-29T05:34:38;-2.10;56.50
19214;DHT22;9741;51.020;5.304;2023-01-29T05:37:08;-1.90;56.50
19214;DHT22;9741;51.020;5.304;2023-01-29T05:39:37;-1.90;56.50
19214;DHT22;9741;51.020;5.304;2023-01-29T05:42:05;-1.80;56.40
19214;DHT22;9741;51.020;5.304;2023-01-29T05:44:32;-1.70;57.00
19214;DHT22;9741;51.020;5.304;2023-01-29T05:46:59;-1.60;56.50
19214;DHT22;9741;51.020;5.304;2023-01-29T05:49:27;-1.60;56.40
19214;DHT22;9741;51.020;5.304;2023-01-29T05:51:54;-1.50;56.50
19214;DHT22;9741;51.020;5.304;2023-01-29T05:54:23;-1.40;56.60
19214;DHT22;9741;51.020;5.304;2023-01-29T05:56:50;-1.40;56.60
19214;DHT22;9741;51.020;5.304;2023-01-29T05:59:19;-1.30;56.70
19214;DHT22;9741;51.020;5.304;2023-01-29T06:01:48;-1.30;56.70
19214;DHT22;9741;51.020;5.304;2023-01-29T06:04:15;-1.20;56.70
19214;DHT22;9741;51.020;5.304;2023-01-29T06:06:42;-1.10;56.90
19214;DHT22;9741;51.020;5.304;2023-01-29T06:09:10;-1.00;56.90
19214;DHT22;9741;51.020;5.304;2023-01-29T06:11:41;-0.90;56.90
19214;DHT22;9741;51.020;5.304;2023-01-29T06:14:08;-0.90;56.90
19214;DHT22;9741;51.020;5.304;2023-01-29T06:16:35;-0.80;57.00
19214;DHT22;9741;51.020;5.304;2023-01-29T06:19:02;-0.80;57.00
19214;DHT22;9741;51.020;5.304;2023-01-29T06:21:30;-0.70;57.10
19214;DHT22;9741;51.020;5.304;2023-01-29T06:23:57;-0.60;57.20
19214;DHT22;9741;51.020;5.304;2023-01-29T06:26:24;-0.50;57.20
19214;DHT22;9741;51.020;5.304;2023-01-29T06:28:53;-0.50;57.20
19214;DHT22;9741;51.020;5.304;2023-01-29T06:31:20;-0.40;57.20
19214;DHT22;9741;51.020;5.304;2023-01-29T06:33:47;-0.40;57.30
19214;DHT22;9741;51.020;5.304;2023-01-29T06:36:16;-0.30;57.30
19214;DHT22;9741;51.020;5.304;2023-01-29T06:38:43;-0.30;57.30
19214;DHT22;9741;51.020;5.304;2023-01-29T06:41:14;-0.30;57.20
19214;DHT22;9741;51.020;5.304;2023-01-29T06:43:46;-0.20;57.30
19214;DHT22;9741;51.020;5.304;2023-01-29T06:46:20;-0.20;57.30
19214;DHT22;9741;51.020;5.304;2023-01-29T06:48:48;-0.10;57.50
19214;DHT22;9741;51.020;5.304;2023-01-29T06:51:15;-0.10;57.40
19214;DHT22;9741;51.020;5.304;2023-01-29T06:53:43;-0.10;57.50
19214;DHT22;9741;51.020;5.304;2023-01-29T06:56:13;-0.10;57.50
19214;DHT22;9741;51.020;5.304;2023-01-29T06:58:41;0.00;57.50
19214;DHT22;9741;51.020;5.304;2023-01-29T07:01:10;0.00;57.50
19214;DHT22;9741;51.020;5.304;2023-01-29T07:03:42;0.00;57.50
19214;DHT22;9741;51.020;5.304;2023-01-29T07:06:09;0.10;57.60
19214;DHT22;9741;51.020;5.304;2023-01-29T07:08:37;0.10;57.50
19214;DHT22;9741;51.020;5.304;2023-01-29T07:11:07;0.10;57.50
19214;DHT22;9741;51.020;5.304;2023-01-29T07:13:35;0.10;57.50
19214;DHT22;9741;51.020;5.304;2023-01-29T07:16:03;0.10;57.60
19214;DHT22;9741;51.020;5.304;2023-01-29T07:18:32;0.20;57.70
19214;DHT22;9741;51.020;5.304;2023-01-29T07:21:03;0.20;57.70
19214;DHT22;9741;51.020;5.304;2023-01-29T07:23:32;0.20;57.70
19214;DHT22;9741;51.020;5.304;2023-01-29T07:26:00;0.20;57.80
19214;DHT22;9741;51.020;5.304;2023-01-29T07:28:29;0.30;57.80
19214;DHT22;9741;51.020;5.304;2023-01-29T07:30:58;0.30;57.80
19214;DHT22;9741;51.020;5.304;2023-01-29T07:33:25;0.30;57.80
19214;DHT22;9741;51.020;5.304;2023-01-29T07:35:53;0.30;57.80
19214;DHT22;9741;51.020;5.304;2023-01-29T07:38:22;0.40;58.00
19214;DHT22;9741;51.020;5.304;2023-01-29T07:40:52;0.40;58.00
19214;DHT22;9741;51.020;5.304;2023-01-29T07:43:19;0.50;58.00
19214;DHT22;9741;51.020;5.304;2023-01-29T07:45:49;0.50;58.00
19214;DHT22;9741;51.020;5.304;2023-01-29T07:48:17;0.50;57.90
19214;DHT22;9741;51.020;5.304;2023-01-29T07:50:53;0.50;57.90
19214;DHT22;9741;51.020;5.304;2023-01-29T07:53:22;0.50;57.90
19214;DHT22;9741;51.020;5.304;2023-01-29T07:55:49;0.60;58.10
19214;DHT22;9741;51.020;5.304;2023-01-29T07:58:16;0.60;58.00
19214;DHT22;9741;51.020;5.304;2023-01-29T08:00:44;0.70;58.10
19214;DHT22;9741;51.020;5.304;2023-01-29T08:03:13;0.70;58.10
19214;DHT22;9741;51.020;5.304;2023-01-29T08:05:41;0.70;58.10
19214;DHT22;9741;51.020;5.304;2023-01-29T08:08:09;0.80;58.20
19214;DHT22;9741;51.020;5.304;2023-01-29T08:10:39;0.80;58.20
19214;DHT22;9741;51.020;5.304;2023-01-29T08:13:08;0.90;58.30
19214;DHT22;9741;51.020;5.304;2023-01-29T08:15:37;0.90;58.20
19214;DHT22;9741;51.020;5.304;2023-01-29T08:18:04;1.00;58.30
19214;DHT22;9741;51.020;5.304;2023-01-29T08:20:31;1.00;58.20
19214;DHT22;9741;51.020;5.304;2023-01-29T08:23:05;1.00;58.20
19214;DHT22;9741;51.020;5.304;2023-01-29T08:25:33;1.10;58.30
19214;DHT22;9741;51.020;5.304;2023-01-29T08:28:03;1.10;58.30
19214;DHT22;9741;51.020;5.304;2023-01-29T08:30:34;1.20;58.40
19214;DHT22;9741;51.020;5.304;2023-01-29T08:33:03;1.20;58.30
19214;DHT22;9741;51.020;5.304;2023-01-29T08:35:34;1.20;58.30
19214;DHT22;9741;51.020;5.304;2023-01-29T08:38:04;1.30;58.30
19214;DHT22;9741;51.020;5.304;2023-01-29T08:40:33;1.30;58.30
19214;DHT22;9741;51.020;5.304;2023-01-29T08:43:09;1.30;58.30
19214;DHT22;9741;51.020;5.304;2023-01-29T08:45:43;1.40;58.40
19214;DHT22;9741;51.020;5.304;2023-01-29T08:48:12;1.40;58.30
19214;DHT22;9741;51.020;5.304;2023-01-29T08:50:41;1.40;58.40
19214;DHT22;9741;51.020;5.304;2023-01-29T08:53:08;1.50;58.50
19214;DHT22;9741;51.020;5.304;2023-01-29T08:55:37;1.50;58.50
19214;DHT22;9741;51.020;5.304;2023-01-29T08:58:08;1.60;58.60
19214;DHT22;9741;51.020;5.304;2023-01-29T09:00:36;1.60;58.40
19214;DHT22;9741;51.020;5.304;2023-01-29T09:03:07;1.60;58.40
19214;DHT22;9741;51.020;5.304;2023-01-29T09:05:37;1.70;59.00
19214;DHT22;9741;51.020;5.304;2023-01-29T09:08:06;1.70;58.50
19214;DHT22;9741;51.020;5.304;2023-01-29T09:10:34;1.80;58.60
19214;DHT22;9741;51.020;5.304;2023-01-29T09:13:02;1.80;58.50
19214;DHT22;9741;51.020;5.304;2023-01-29T09:15:33;1.90;58.50
19214;DHT22;9741;51.020;5.304;2023-01-29T09:18:03;2.00;58.50
19214;DHT22;9741;51.020;5.304;2023-01-29T09:20:31;2.00;58.50
19214;DHT22;9741;51.020;5.304;2023-01-29T09:23:03;2.00;58.50
19214;DHT22;9741;51.020;5.304;2023-01-29T09:25:30;2.10;58.50
19214;DHT22;9741;51.020;5.304;2023-01-29T09:27:58;2.20;58.70
19214;DHT22;9741;51.020;5.304;2023-01-29T09:30:26;2.20;58.60
19214;DHT22;9741;51.020;5.304;2023-01-29T09:33:00;2.30;58.60
19214;DHT22;9741;51.020;5.304;2023-01-29T09:35:28;2.40;58.60
19214;DHT22;9741;51.020;5.304;2023-01-29T09:37:56;2.40;58.60
19214;DHT22;9741;51.020;5.304;2023-01-29T09:40:31;2.50;58.50
19214;DHT22;9741;51.020;5.304;2023-01-29T09:43:02;2.60;58.50
19214;DHT22;9741;51.020;5.304;2023-01-29T09:45:34;2.60;58.50
19214;DHT22;9741;51.020;5.304;2023-01-29T09:48:07;2.70;58.60
19214;DHT22;9741;51.020;5.304;2023-01-29T09:50:39;2.70;58.50
19214;DHT22;9741;51.020;5.304;2023-01-29T09:53:16;2.80;58.50
19214;DHT22;9741;51.020;5.304;2023-01-29T09:55:48;2.90;58.50
19214;DHT22;9741;51.020;5.304;2023-01-29T09:58:19;2.90;58.40
19214;DHT22;9741;51.020;5.304;2023-01-29T10:00:57;3.00;58.40
19214;DHT22;9741;51.020;5.304;2023-01-29T10:03:54;3.00;58.40
19214;DHT22;9741;51.020;5.304;2023-01-29T10:06:46;3.10;58.40
19214;DHT22;9741;51.020;5.304;2023-01-29T10:09:32;3.10;58.20
19214;DHT22;9741;51.020;5.304;2023-01-29T10:12:13;3.20;58.30
19214;DHT22;9741;51.020;5.304;2023-01-29T10:14:50;3.20;58.20
19214;DHT22;9741;51.020;5.304;2023-01-29T10:17:34;3.30;58.20
19214;DHT22;9741;51.020;5.304;2023-01-29T10:20:33;3.40;58.30
19214;DHT22;9741;51.020;5.304;2023-01-29T10:23:14;3.50;58.30
19214;DHT22;9741;51.020;5.304;2023-01-29T10:25:44;3.50;58.20
19214;DHT22;9741;51.020;5.304;2023-01-29T10:28:16;3.50;58.10
19214;DHT22;9741;51.020;5.304;2023-01-29T10:30:48;3.60;58.20
19214;DHT22;9741;51.020;5.304;2023-01-29T10:33:25;3.70;58.20
19214;DHT22;9741;51.020;5.304;2023-01-29T10:35:57;3.70;58.10
19214;DHT22;9741;51.020;5.304;2023-01-29T10:38:35;3.70;58.00
19214;DHT22;9741;51.020;5.304;2023-01-29T10:41:23;3.70;58.00
19214;DHT22;9741;51.020;5.304;2023-01-29T10:44:05;3.70;58.00
19214;DHT22;9741;51.020;5.304;2023-01-29T10:46:52;3.80;58.10
19214;DHT22;9741;51.020;5.304;2023-01-29T10:49:45;3.80;58.00
19214;DHT22;9741;51.020;5.304;2023-01-29T10:52:28;3.90;58.00
19214;DHT22;9741;51.020;5.304;2023-01-29T10:55:08;4.00;58.10
19214;DHT22;9741;51.020;5.304;2023-01-29T10:58:10;4.00;58.10
19214;DHT22;9741;51.020;5.304;2023-01-29T11:00:41;4.10;57.90
19214;DHT22;9741;51.020;5.304;2023-01-29T11:03:14;4.10;57.90
19214;DHT22;9741;51.020;5.304;2023-01-29T11:05:46;4.10;57.80
19214;DHT22;9741;51.020;5.304;2023-01-29T11:08:21;4.20;57.90
19214;DHT22;9741;51.020;5.304;2023-01-29T11:10:53;4.20;57.80
19214;DHT22;9741;51.020;5.304;2023-01-29T11:13:31;4.20;57.60
19214;DHT22;9741;51.020;5.304;2023-01-29T11:15:59;4.30;57.70
19214;DHT22;9741;51.020;5.304;2023-01-29T11:18:48;4.30;57.60
19214;DHT22;9741;51.020;5.304;2023-01-29T11:21:16;4.30;57.60
19214;DHT22;9741;51.020;5.304;2023-01-29T11:23:46;4.40;57.60
19214;DHT22;9741;51.020;5.304;2023-01-29T11:26:17;4.40;57.50
19214;DHT22;9741;51.020;5.304;2023-01-29T11:28:48;4.50;57.50
19214;DHT22;9741;51.020;5.304;2023-01-29T11:31:24;4.60;57.50
19214;DHT22;9741;51.020;5.304;2023-01-29T11:34:02;4.60;57.40
19214;DHT22;9741;51.020;5.304;2023-01-29T11:36:34;4.70;57.40
19214;DHT22;9741;51.020;5.304;2023-01-29T11:39:20;4.70;57.20
19214;DHT22;9741;51.020;5.304;2023-01-29T11:41:56;4.70;57.10
19214;DHT22;9741;51.020;5.304;2023-01-29T11:44:29;4.80;57.20
19214;DHT22;9741;51.020;5.304;2023-01-29T11:47:09;4.80;57.20
19214;DHT22;9741;51.020;5.304;2023-01-29T11:49:44;4.80;57.00
19214;DHT22;9741;51.020;5.304;2023-01-29T11:52:13;4.90;57.00
19214;DHT22;9741;51.020;5.304;2023-01-29T11:54:51;4.90;56.90
19214;DHT22;9741;51.020;5.304;2023-01-29T11:57:27;5.00;56.90
19214;DHT22;9741;51.020;5.304;2023-01-29T11:59:59;5.00;56.90
19214;DHT22;9741;51.020;5.304;2023-01-29T12:02:32;5.10;57.00
19214;DHT22;9741;51.020;5.304;2023-01-29T12:05:04;5.10;56.80
19214;DHT22;9741;51.020;5.304;2023-01-29T12:07:34;5.10;56.70
19214;DHT22;9741;51.020;5.304;2023-01-29T12:10:30;5.10;56.60
19214;DHT22;9741;51.020;5.304;2023-01-29T12:13:04;5.20;56.70
19214;DHT22;9741;51.020;5.304;2023-01-29T12:15:31;5.20;56.70
19214;DHT22;9741;51.020;5.304;2023-01-29T12:18:07;5.20;56.60
19214;DHT22;9741;51.020;5.304;2023-01-29T12:20:43;5.30;56.70
19214;DHT22;9741;51.020;5.304;2023-01-29T12:23:23;5.30;56.50
19214;DHT22;9741;51.020;5.304;2023-01-29T12:26:03;5.40;56.50
19214;DHT22;9741;51.020;5.304;2023-01-29T12:28:43;5.50;56.50
19214;DHT22;9741;51.020;5.304;2023-01-29T12:31:23;5.50;56.40
19214;DHT22;9741;51.020;5.304;2023-01-29T12:34:00;5.50;56.30
19214;DHT22;9741;51.020;5.304;2023-01-29T12:36:32;5.50;56.20
19214;DHT22;9741;51.020;5.304;2023-01-29T12:39:03;5.50;56.10
19214;DHT22;9741;51.020;5.304;2023-01-29T12:41:42;5.50;56.00
19214;DHT22;9741;51.020;5.304;2023-01-29T12:44:14;5.50;56.00
19214;DHT22;9741;51.020;5.304;2023-01-29T12:46:47;5.50;55.90
19214;DHT22;9741;51.020;5.304;2023-01-29T12:49:20;5.50;55.80
19214;DHT22;9741;51.020;5.304;2023-01-29T12:51:54;5.50;55.80
19214;DHT22;9741;51.020;5.304;2023-01-29T12:54:33;5.50;55.70
19214;DHT22;9741;51.020;5.304;2023-01-29T12:57:08;5.50;55.70
19214;DHT22;9741;51.020;5.304;2023-01-29T12:59:40;5.60;55.80
19214;DHT22;9741;51.020;5.304;2023-01-29T13:02:21;5.60;55.70
19214;DHT22;9741;51.020;5.304;2023-01-29T13:04:58;5.70;55.70
19214;DHT22;9741;51.020;5.304;2023-01-29T13:07:30;5.80;55.60
19214;DHT22;9741;51.020;5.304;2023-01-29T13:10:06;5.80;55.40
19214;DHT22;9741;51.020;5.304;2023-01-29T13:12:45;5.90;55.50
19214;DHT22;9741;51.020;5.304;2023-01-29T13:15:21;5.90;55.30
19214;DHT22;9741;51.020;5.304;2023-01-29T13:17:53;6.00;55.30
19214;DHT22;9741;51.020;5.304;2023-01-29T13:20:27;6.00;55.20
19214;DHT22;9741;51.020;5.304;2023-01-29T13:23:05;6.00;55.70
19214;DHT22;9741;51.020;5.304;2023-01-29T13:25:39;6.00;54.90
19214;DHT22;9741;51.020;5.304;2023-01-29T13:28:18;5.90;54.70
19214;DHT22;9741;51.020;5.304;2023-01-29T13:30:46;5.90;54.70
19214;DHT22;9741;51.020;5.304;2023-01-29T13:33:34;5.80;54.60
19214;DHT22;9741;51.020;5.304;2023-01-29T13:36:02;5.70;54.50
19214;DHT22;9741;51.020;5.304;2023-01-29T13:38:33;5.70;54.60
19214;DHT22;9741;51.020;5.304;2023-01-29T13:41:03;5.60;54.50
19214;DHT22;9741;51.020;5.304;2023-01-29T13:43:35;5.60;54.60
19214;DHT22;9741;51.020;5.304;2023-01-29T13:46:07;5.60;54.70
19214;DHT22;9741;51.020;5.304;2023-01-29T13:48:41;5.50;54.70
19214;DHT22;9741;51.020;5.304;2023-01-29T13:51:11;5.50;54.60
19214;DHT22;9741;51.020;5.304;2023-01-29T13:53:53;5.50;54.60
19214;DHT22;9741;51.020;5.304;2023-01-29T13:56:33;5.50;54.60
19214;DHT22;9741;51.020;5.304;2023-01-29T13:59:23;5.40;54.60
19214;DHT22;9741;51.020;5.304;2023-01-29T14:02:01;5.40;54.70
19214;DHT22;9741;51.020;5.304;2023-01-29T14:04:32;5.40;54.70
19214;DHT22;9741;51.020;5.304;2023-01-29T14:07:01;5.40;54.70
19214;DHT22;9741;51.020;5.304;2023-01-29T14:12:50;5.30;54.60
19214;DHT22;9741;51.020;5.304;2023-01-29T14:15:30;5.30;54.60
19214;DHT22;9741;51.020;5.304;2023-01-29T14:18:14;5.30;54.70
19214;DHT22;9741;51.020;5.304;2023-01-29T14:20:52;5.30;54.80
19214;DHT22;9741;51.020;5.304;2023-01-29T14:23:31;5.20;54.60
19214;DHT22;9741;51.020;5.304;2023-01-29T14:26:03;5.20;54.70
19214;DHT22;9741;51.020;5.304;2023-01-29T14:28:32;5.20;54.70
19214;DHT22;9741;51.020;5.304;2023-01-29T14:31:05;5.20;54.70
19214;DHT22;9741;51.020;5.304;2023-01-29T14:33:35;5.20;54.70
19214;DHT22;9741;51.020;5.304;2023-01-29T14:36:06;5.20;54.70
19214;DHT22;9741;51.020;5.304;2023-01-29T14:38:35;5.20;54.80
19214;DHT22;9741;51.020;5.304;2023-01-29T14:41:13;5.20;54.80
19214;DHT22;9741;51.020;5.304;2023-01-29T14:43:41;5.10;54.70
19214;DHT22;9741;51.020;5.304;2023-01-29T14:46:43;5.10;54.70
19214;DHT22;9741;51.020;5.304;2023-01-29T14:49:11;5.10;54.70
19214;DHT22;9741;51.020;5.304;2023-01-29T14:51:42;5.10;54.70
19214;DHT22;9741;51.020;5.304;2023-01-29T14:54:23;5.20;54.80
19214;DHT22;9741;51.020;5.304;2023-01-29T14:56:56;5.10;54.70
19214;DHT22;9741;51.020;5.304;2023-01-29T14:59:29;5.20;54.90
19214;DHT22;9741;51.020;5.304;2023-01-29T15:02:04;5.20;54.80
19214;DHT22;9741;51.020;5.304;2023-01-29T15:04:41;5.10;54.70
19214;DHT22;9741;51.020;5.304;2023-01-29T15:07:18;5.10;54.70
19214;DHT22;9741;51.020;5.304;2023-01-29T15:09:50;5.10;54.70
19214;DHT22;9741;51.020;5.304;2023-01-29T15:12:26;5.10;54.70
19214;DHT22;9741;51.020;5.304;2023-01-29T15:15:03;5.20;54.80
19214;DHT22;9741;51.020;5.304;2023-01-29T15:17:39;5.20;54.80
19214;DHT22;9741;51.020;5.304;2023-01-29T15:20:27;5.20;54.80
19214;DHT22;9741;51.020;5.304;2023-01-29T15:22:56;5.20;55.30
19214;DHT22;9741;51.020;5.304;2023-01-29T15:25:25;5.20;54.70
19214;DHT22;9741;51.020;5.304;2023-01-29T15:27:57;5.10;54.60
19214;DHT22;9741;51.020;5.304;2023-01-29T15:30:31;5.20;54.70
19214;DHT22;9741;51.020;5.304;2023-01-29T15:33:01;5.20;54.70
19214;DHT22;9741;51.020;5.304;2023-01-29T15:35:39;5.20;54.70
19214;DHT22;9741;51.020;5.304;2023-01-29T15:38:15;5.20;54.70
19214;DHT22;9741;51.020;5.304;2023-01-29T15:40:51;5.20;54.70
19214;DHT22;9741;51.020;5.304;2023-01-29T15:43:21;5.20;54.70
19214;DHT22;9741;51.020;5.304;2023-01-29T15:45:49;5.10;54.60
19214;DHT22;9741;51.020;5.304;2023-01-29T15:48:20;5.10;54.60
19214;DHT22;9741;51.020;5.304;2023-01-29T15:50:50;5.10;54.60
19214;DHT22;9741;51.020;5.304;2023-01-29T15:53:21;5.10;54.60
19214;DHT22;9741;51.020;5.304;2023-01-29T15:55:51;5.20;54.70
19214;DHT22;9741;51.020;5.304;2023-01-29T15:58:27;5.10;54.60
19214;DHT22;9741;51.020;5.304;2023-01-29T16:00:56;5.10;54.60
19214;DHT22;9741;51.020;5.304;2023-01-29T16:03:27;5.10;54.60
19214;DHT22;9741;51.020;5.304;2023-01-29T16:05:57;5.10;54.60
19214;DHT22;9741;51.020;5.304;2023-01-29T16:08:26;5.10;54.70
19214;DHT22;9741;51.020;5.304;2023-01-29T16:10:55;5.10;54.60
19214;DHT22;9741;51.020;5.304;2023-01-29T16:13:26;5.10;54.60
19214;DHT22;9741;51.020;5.304;2023-01-29T16:15:55;5.10;54.60
19214;DHT22;9741;51.020;5.304;2023-01-29T16:18:32;5.10;54.60
19214;DHT22;9741;51.020;5.304;2023-01-29T16:21:02;5.10;54.60
19214;DHT22;9741;51.020;5.304;2023-01-29T16:23:38;5.00;54.40
19214;DHT22;9741;51.020;5.304;2023-01-29T16:26:11;5.00;54.50
19214;DHT22;9741;51.020;5.304;2023-01-29T16:28:41;5.00;54.50
19214;DHT22;9741;51.020;5.304;2023-01-29T16:31:09;5.00;54.50
19214;DHT22;9741;51.020;5.304;2023-01-29T16:33:43;5.00;54.50
19214;DHT22;9741;51.020;5.304;2023-01-29T16:36:15;4.90;54.40
19214;DHT22;9741;51.020;5.304;2023-01-29T16:38:47;4.90;54.50